^^
Grace C. Lehan Memorial Weather Station Historical Data
Daily Summary for April 7, 2021 Units:  Metric    English   Both
Daily Weekly Monthly Yearly
  High: Low: Average:
Temperature: 6.2 °C 2.7 °C 4.2 °C
Dew Point: 2.1 °C -2.7 °C -1.1 °C
Humidity: 75% 66.6% 68%
Wind Speed: 15.3km/h 0km/h 3.2km/h
Wind Gust: 35.4km/h - -
Wind- - WNW
Pressure: 1013.8 hPa 1008 hPa -
Precipitation: 0 mm    
 
 
Tabular Data for April 7, 2021
Time Temperature Dew Point Pressure Wind Wind Speed Wind Gust Humidity Rainfall Rate (Hourly) solar
00:04 6.2 °C 2.1 °C 1008 hPa NW 10.8 km/h 35.4 km/h 75% 0.25 mm 0 W/m2
00:09 6.1 °C 1.8 °C 1008.4 hPa NW 13.4 km/h 29 km/h 74.2% 0.25 mm 0 W/m2
00:14 6 °C 1.6 °C 1008.4 hPa WNW 8.5 km/h 29 km/h 73.2% 0.25 mm 0 W/m2
00:19 5.9 °C 1.2 °C 1008.7 hPa NW 10.9 km/h 32.2 km/h 71.9% 0.25 mm 0 W/m2
00:24 5.8 °C 0.8 °C 1008.7 hPa NW 14.5 km/h 32.2 km/h 70.1% 0.25 mm 0 W/m2
00:29 5.7 °C 0.4 °C 1008.7 hPa NW 15.3 km/h 32.2 km/h 68.6% 0.25 mm 0 W/m2
00:34 5.7 °C 0.2 °C 1008.7 hPa WNW 10.9 km/h 32.2 km/h 67.8% 0.25 mm 0 W/m2
00:39 5.6 °C 0.2 °C 1009 hPa NW 7.2 km/h 20.9 km/h 68% 0.25 mm 0 W/m2
00:44 5.5 °C -0.1 °C 1009 hPa WNW 6.6 km/h 20.9 km/h 67.5% 0.25 mm 0 W/m2
00:49 5.4 °C -0.1 °C 1009.4 hPa WNW 4 km/h 20.9 km/h 67.8% 0.25 mm 0 W/m2
00:54 5.3 °C -0.3 °C 1009.4 hPa WNW 4.7 km/h 20.9 km/h 67.5% 0.25 mm 0 W/m2
00:59 5.2 °C -0.3 °C 1009.4 hPa WNW 2.7 km/h 20.9 km/h 67.5% 0.25 mm 0 W/m2
01:04 5.1 °C -0.6 °C 1009.7 hPa WNW 5.3 km/h 20.9 km/h 67.2% 0.25 mm 0 W/m2
01:09 4.9 °C -0.7 °C 1009.7 hPa WNW 5.3 km/h 16.1 km/h 67% 0 mm 0 W/m2
01:14 4.9 °C -0.8 °C 1009.7 hPa WNW 6.1 km/h 17.7 km/h 66.8% 0 mm 0 W/m2
01:19 4.8 °C -0.8 °C 1010 hPa WNW 5.8 km/h 22.5 km/h 66.6% 0 mm 0 W/m2
01:24 4.8 °C -0.8 °C 1010 hPa WNW 2.6 km/h 22.5 km/h 67% 0 mm 0 W/m2
01:29 4.7 °C -0.9 °C 1010 hPa WNW 1 km/h 22.5 km/h 67% 0 mm 0 W/m2
01:34 4.6 °C -0.8 °C 1010.4 hPa WNW 0.6 km/h 22.5 km/h 68% 0 mm 0 W/m2
01:39 4.5 °C -0.8 °C 1010.4 hPa WNW 1.8 km/h 11.3 km/h 68.2% 0 mm 0 W/m2
01:44 4.4 °C -1 °C 1010.7 hPa WNW 2.9 km/h 14.5 km/h 68.2% 0 mm 0 W/m2
01:49 4.3 °C -1.1 °C 1010.7 hPa WNW 2.3 km/h 14.5 km/h 68% 0 mm 0 W/m2
01:54 4.3 °C -1 °C 1011.1 hPa WNW 1 km/h 14.5 km/h 68.4% 0 mm 0 W/m2
01:59 4.2 °C -0.9 °C 1011.1 hPa WNW 0.3 km/h 14.5 km/h 69% 0 mm 0 W/m2
02:04 4.2 °C -1 °C 1011.1 hPa WNW 0.5 km/h 14.5 km/h 69% 0 mm 0 W/m2
02:09 4.1 °C -1 °C 1011.4 hPa WNW 0.3 km/h 9.7 km/h 69.2% 0 mm 0 W/m2
02:14 4.1 °C -0.9 °C 1011.4 hPa Calm   9.7 km/h 70% 0 mm 0 W/m2
02:19 4 °C -1 °C 1011.7 hPa Calm   9.7 km/h 70% 0 mm 0 W/m2
02:24 3.9 °C -1.3 °C 1011.7 hPa NW 1.1 km/h 12.9 km/h 68.8% 0 mm 0 W/m2
02:29 3.9 °C -1.3 °C 1011.7 hPa NW 0.5 km/h 12.9 km/h 69% 0 mm 0 W/m2
02:34 3.8 °C -1.5 °C 1012.1 hPa NW 2.4 km/h 12.9 km/h 68.3% 0 mm 0 W/m2
02:39 3.8 °C -1.5 °C 1012.4 hPa WNW 0.8 km/h 9.7 km/h 68% 0 mm 0 W/m2
02:44 3.8 °C -1.6 °C 1012.4 hPa WNW 3.1 km/h 16.1 km/h 68% 0 mm 0 W/m2
02:49 3.7 °C -1.8 °C 1012.4 hPa WNW 4.7 km/h 17.7 km/h 67.2% 0 mm 0 W/m2
02:54 3.7 °C -1.8 °C 1012.4 hPa WNW 2.4 km/h 17.7 km/h 67% 0 mm 0 W/m2
02:59 3.7 °C -1.8 °C 1012.4 hPa WNW 3.4 km/h 17.7 km/h 67% 0 mm 0 W/m2
03:04 3.7 °C -1.9 °C 1012.4 hPa West 1.9 km/h 17.7 km/h 67% 0 mm 0 W/m2
03:09 3.7 °C -1.9 °C 1012.4 hPa West 2.4 km/h 14.5 km/h 67% 0 mm 0 W/m2
03:14 3.6 °C -1.9 °C 1012.4 hPa West 0.8 km/h 14.5 km/h 67% 0 mm 0 W/m2
03:19 3.5 °C -2 °C 1012.8 hPa WSW 0.6 km/h 14.5 km/h 67% 0 mm 0 W/m2
03:24 3.4 °C -2.1 °C 1012.8 hPa WSW 0.2 km/h 14.5 km/h 67% 0 mm 0 W/m2
03:29 3.4 °C -2 °C 1013.1 hPa WSW 0.3 km/h 14.5 km/h 68% 0 mm 0 W/m2
03:34 3.3 °C -2.1 °C 1013.1 hPa WSW 0.2 km/h 14.5 km/h 68% 0 mm 0 W/m2
03:39 3.2 °C -2.2 °C 1013.1 hPa WSW 0.5 km/h 3.2 km/h 68% 0 mm 0 W/m2
03:44 3.1 °C -2.3 °C 1013.1 hPa Calm   3.2 km/h 68% 0 mm 0 W/m2
03:49 3 °C -2.3 °C 1013.1 hPa Calm   3.2 km/h 68.3% 0 mm 0 W/m2
03:54 2.9 °C -2.3 °C 1013.1 hPa Calm   3.2 km/h 68.9% 0 mm 0 W/m2
03:59 2.8 °C -2.3 °C 1013.1 hPa West 0.6 km/h 8 km/h 69% 0 mm 0 W/m2
04:09 2.7 °C -2.6 °C 1013.1 hPa WNW 0.3 km/h 3.2 km/h 68% 0 mm 0 W/m2
04:14 2.8 °C -2.6 °C 1013.1 hPa WNW 3.1 km/h 16.1 km/h 68% 0 mm 0 W/m2
04:19 2.8 °C -2.5 °C 1013.1 hPa WNW 0.3 km/h 16.1 km/h 68.2% 0 mm 0 W/m2
04:24 2.8 °C -2.6 °C 1013.4 hPa WNW 0.2 km/h 16.1 km/h 68% 0 mm 0 W/m2
04:29 2.7 °C -2.6 °C 1013.4 hPa West 0.6 km/h 16.1 km/h 68% 0 mm 0 W/m2
04:34 2.7 °C -2.7 °C 1013.8 hPa West 1.4 km/h 16.1 km/h 68% 0 mm 0 W/m2
04:38 2.7 °C -2.7 °C 1013.8 hPa West 0.5 km/h 11.3 km/h 68% 0 mm 0 W/m2
Hartford County Weather
Compliments of Weather Underground - 4 mb